• Join FlightAware (Why Join?)
  • Login
  • US Flag 
10:49PM EDT


 

Airport Tracker/Info


-or-


 

Live Flight TrackerFlight Track Log ✈ UAL5832 ✈ 09-Apr-2013 ✈ KORD - KBNA

Flight Track Log - Related Links

Times and Time Zones

All times are in EDT time to prevent confusion due to time zone crossing. See the UAL5832 flight status page for this flight to view local times or setup timezone preferences in your user account.

Time Position Orientation Groundspeed Altitude Reporting Facility
EDT Latitude Longitude Course Direction KTS MPH feet Rate Location/Type
10:16PM 42.0167 -87.8667 180° South 139 160 2,800  Level Chicago TRACON
10:17PM 41.9833 -87.8167 132° Southeast 209 241 4,100 1,080 Climbing Chicago TRACON
10:18PM 41.9167 -87.8167 180° South 251 289 5,000 1,320 Climbing Chicago TRACON
10:21PM 41.7714 -87.8836 199° South 252 290 8,600 1,560 Climbing Chicago Center
10:22PM 41.6173 -87.8239 180° South  Level Estimated
10:22PM 41.6967 -87.8803 178° South 267 307 10,200  Level Chicago Center
10:23PM 41.6147 -87.8803 180° South 288 331 12,100 1,620 Climbing Chicago Center
10:24PM 41.5303 -87.8792 179° South 299 344 13,500 1,020 Climbing Chicago Center
10:25PM 41.4353 -87.8775 179° South 331 381 14,200 900 Climbing Chicago Center
10:26PM 41.3350 -87.8844 183° South 352 405 15,400 1,260 Climbing Chicago Center
10:27PM 41.2133 -87.8931 183° South 361 415 16,800 1,140 Climbing Chicago Center
10:28PM 41.1092 -87.8883 178° South 370 426 17,800 900 Climbing Chicago Center
10:29PM 41.0044 -87.8850 179° South 375 432 18,700 960 Climbing Chicago Center
10:30PM 40.8981 -87.8828 179° South 381 438 19,800 1,020 Climbing Chicago Center
10:31PM 40.7889 -87.8797 179° South 389 448 20,800 960 Climbing Chicago Center
10:32PM 40.6783 -87.8767 179° South 395 455 21,800 960 Climbing Chicago Center
10:33PM 40.5675 -87.8717 178° South 399 459 22,800 1,020 Climbing Chicago Center
10:34PM 40.4572 -87.8686 179° South 399 459 23,900 1,140 Climbing Chicago Center
10:35PM 40.3247 -87.8656 179° South 397 457 25,200 1,200 Climbing Chicago Center
10:35PM 40.3025 -87.8625 174° South 399 459 25,500 1,140 Climbing Indianapolis Center
10:36PM 40.1942 -87.8583 178° South 394 453 26,700 1,140 Climbing Indianapolis Center
10:37PM 40.0867 -87.8553 179° South 390 449 27,900 1,080 Climbing Indianapolis Center
10:38PM 39.9825 -87.8483 177° South 382 440 29,000 900 Climbing Indianapolis Center
10:39PM 39.8769 -87.8386 176° South 379 436 29,800 900 Climbing Indianapolis Center
10:40PM 39.7697 -87.8122 169° South 386 444 30,900 540 Climbing Indianapolis Center
10:41PM 39.6606 -87.7828 168° South 393 452 31,000  Climbing Indianapolis Center
10:42PM 39.5433 -87.7542 169° South 414 476 31,000  Level Indianapolis Center
10:43PM 39.4203 -87.7244 169° South 439 505 31,000  Level Indianapolis Center
10:44PM 39.2683 -87.6925 171° South 459 528 31,000  Level Indianapolis Center
10:45PM 39.1436 -87.6622 169° South 454 522 31,000  Level Indianapolis Center
10:46PM 39.0203 -87.6333 170° South 450 518 31,000  Level Indianapolis Center
10:47PM 38.8975 -87.6050 170° South 447 514 31,000  Level Indianapolis Center
10:48PM 38.7756 -87.5769 170° South 445 512 31,000  Level Indianapolis Center
10:49PM 38.6539 -87.5483 170° South 444 511 31,000  Level Indianapolis Center
10:50PM 38.5339 -87.5206 170° South 442 509 31,000  Level Indianapolis Center
10:52PM 38.4131 -87.4936 170° South 442 509 31,000  Level Indianapolis Center
10:53PM 38.2933 -87.4664 170° South 441 507 31,000  Level Indianapolis Center
10:54PM 38.1739 -87.4400 170° South 440 506 31,000  Level Indianapolis Center
10:55PM 38.0294 -87.4064 170° South 441 507 31,000  Level Indianapolis Center
10:56PM 37.9086 -87.3797 170° South 441 507 31,000 -540 Level Indianapolis Center
10:57PM 37.7886 -87.3519 170° South 439 505 30,000 -1,620 Descending Indianapolis Center
10:58PM 37.6767 -87.3294 171° South 445 512 27,800 -2,460 Descending Indianapolis Center
10:58PM 37.5944 -87.3133 171° South 449 517 26,000 -2,940 Descending Memphis Center
10:59PM 37.5381 -87.3022 171° South 438 504 24,800 -2,520 Descending Memphis Center
10:59PM 37.4667 -87.2817 167° South 442 509 23,500 -2,340 Descending Memphis Center
11:00PM 37.3472 -87.2575 171° South 442 509 21,200 -1,920 Descending Memphis Center
11:01PM 37.2150 -87.2183 167° South 427 491 19,400 -1,560 Descending Memphis Center
11:02PM 37.1186 -87.1911 167° South 420 483 18,100 -1,620 Descending Memphis Center
11:03PM 37.0136 -87.1589 166° South 398 458 16,500 -1,800 Descending Memphis Center
11:04PM 36.9128 -87.1317 168° South 388 447 14,600 -1,920 Descending Memphis Center
11:05PM 36.8056 -87.0919 163° South 390 449 12,700 -1,560 Descending Memphis Center
11:06PM 36.7228 -87.0408 154° Southeast 357 411 11,500 -1,200 Descending Memphis Center
11:07PM 36.6467 -86.9950 154° Southeast 314 361 10,300 -1,140 Descending Memphis Center
11:08PM 36.5831 -86.9561 154° Southeast 292 336 9,300 -840 Descending Memphis Center
11:09PM 36.5153 -86.9153 154° Southeast 280 322 8,700 -1,200 Descending Memphis Center
11:10PM 36.4575 -86.8686 147° Southeast 262 302 7,000 -1,680 Descending Memphis Center
11:11PM 36.4042 -86.8219 145° Southeast 245 282 5,400 -1,500 Descending Memphis Center
11:12PM 36.3486 -86.7756 146° Southeast 234 269 4,100 -1,200 Descending Memphis Center
11:13PM 36.3036 -86.7361 145° Southeast 217 250 3,100 -900 Descending Memphis Center
11:14PM 36.2631 -86.6994 144° Southeast 192 221 2,400 -900 Descending Memphis Center
11:15PM 36.2267 -86.6728 149° Southeast 164 189 1,400 -480 Descending Memphis Center
11:16PM 36.1953 -86.6664 171° South 126 145 1,500 -120 Climbing Memphis Center
11:17PM 36.1661 -86.6653 178° South 120 138 1,200 -480 Descending Memphis Center
11:18PM 36.1331 -86.6794 199° South 120 138 600 3,900 Descending Memphis Center
11:19PM 36.1000 -86.6861 189° South 120 138 9,000 8,400 Climbing Memphis Center
11:21PM 36.1167 -86.6667 90° East  Level FlightAware Approximate
11:28PM 36.1245 -86.6782 90° East  Level Estimated
11:29PM 36.1245 -86.6782 90° East  Level Estimated
11:30PM 36.1245 -86.6782 90° East  Level Estimated
11:31PM 36.1245 -86.6782 90° East  Level Estimated
11:32PM 36.1245 -86.6782 90° East  Level Estimated
11:33PM 36.1245 -86.6782 90° East  Level Estimated